Pilot No. 4 — WDA5463 — position and weather

sailwx.info

Track history (hours):
 
Tides and Currents Weather Stations Pressure Air Temp Water Temp Dewpoint Dewpoint Depression Visibility Wind Speed Wind Dir Waves Ship Positions

Pilot No. 4

Owner: P E P Inc, FORT LAUDERDALE, FL. More information available from US FCC via Universal Licensing System and Coast Guard Vessel Documentation Center.

Last reported at 2016-Sep-25 11:12 UTC. Time now 2016-Sep-28 08:36 UTC.
Position N 26°06' W 080°07'.

MMSI: 495270931.

Date/timePositionNaut miles runAvg speedWind from/ knotsBaromVisibWave heightAir tempDewpointWater temp
2016-Sep-25 11:12N 26°06' W 080°07'4 6.1
2016-Sep-25 10:33N 26°06' W 080°03'4 3.8
2016-Sep-25 09:33N 26°06' W 080°07'0 0.1
2016-Sep-25 07:33N 26°06' W 080°07'2 0.5
2016-Sep-25 04:33N 26°05' W 080°05'  
2016-Sep-22 03:31N 26°06' W 080°07'  
2016-Sep-19 11:33N 26°06' W 080°06'2 0.2
2016-Sep-19 03:33N 26°06' W 080°07'1 0.4
2016-Sep-19 00:33N 26°06' W 080°06'1 0.0
2016-Sep-17 19:16N 26°06' W 080°05'1 0.2
2016-Sep-17 13:33N 26°06' W 080°07'1 1.0
2016-Sep-17 12:33N 26°05' W 080°07'0 0.0
2016-Sep-16 15:24N 26°04' W 080°07'1 0.5
2016-Sep-16 12:33N 26°06' W 080°07'0 0.0
2016-Sep-16 03:23N 26°06' W 080°07'1 1.0
2016-Sep-16 02:33N 26°05' W 080°07'0 0.1
2016-Sep-15 22:33N 26°06' W 080°06'0 0.5
2016-Sep-15 21:33N 26°06' W 080°07'0 0.1
2016-Sep-15 18:33N 26°05' W 080°07'0 0.1
2016-Sep-15 12:33N 26°06' W 080°07'0 0.0
2016-Sep-15 11:33N 26°06' W 080°07'  
Track history (hours):
 
Tides and Currents Weather Stations Pressure Air Temp Water Temp Dewpoint Dewpoint Depression Visibility Wind Speed Wind Dir Waves Ship Positions

Pilot No. 4

Owner: P E P Inc, FORT LAUDERDALE, FL. More information available from US FCC via Universal Licensing System and Coast Guard Vessel Documentation Center.

Last reported at 2016-Sep-25 11:12 UTC. Time now 2016-Sep-28 08:36 UTC.
Position N 26°06' W 080°07'.

MMSI: 495270931.

Date/timePositionNaut miles runAvg speedWind from/ knotsBaromVisibWave heightAir tempDewpointWater temp
2016-Sep-25 11:12N 26°06' W 080°07'4 6.1
2016-Sep-25 10:33N 26°06' W 080°03'4 3.8
2016-Sep-25 09:33N 26°06' W 080°07'0 0.1
2016-Sep-25 07:33N 26°06' W 080°07'2 0.5
2016-Sep-25 04:33N 26°05' W 080°05'  
2016-Sep-22 03:31N 26°06' W 080°07'  
2016-Sep-19 11:33N 26°06' W 080°06'2 0.2
2016-Sep-19 03:33N 26°06' W 080°07'1 0.4
2016-Sep-19 00:33N 26°06' W 080°06'1 0.0
2016-Sep-17 19:16N 26°06' W 080°05'1 0.2
2016-Sep-17 13:33N 26°06' W 080°07'1 1.0
2016-Sep-17 12:33N 26°05' W 080°07'0 0.0
2016-Sep-16 15:24N 26°04' W 080°07'1 0.5
2016-Sep-16 12:33N 26°06' W 080°07'0 0.0
2016-Sep-16 03:23N 26°06' W 080°07'1 1.0
2016-Sep-16 02:33N 26°05' W 080°07'0 0.1
2016-Sep-15 22:33N 26°06' W 080°06'0 0.5
2016-Sep-15 21:33N 26°06' W 080°07'0 0.1
2016-Sep-15 18:33N 26°05' W 080°07'0 0.1
2016-Sep-15 12:33N 26°06' W 080°07'0 0.0
2016-Sep-15 11:33N 26°06' W 080°07'  

Dump ship's entire track history